createdAt,value
2019-02-24T00:04:20.014Z,1.74
2019-02-24T00:09:24.031Z,1.79
2019-02-24T00:14:28.076Z,1.74
2019-02-24T00:19:32.101Z,1.80
2019-02-24T00:24:36.109Z,1.84
2019-02-24T00:29:40.133Z,1.85
2019-02-24T00:34:44.175Z,1.95
2019-02-24T00:39:48.193Z,1.94
2019-02-24T00:44:52.209Z,1.98
2019-02-24T00:49:56.231Z,1.90
2019-02-24T00:55:00.356Z,1.85
2019-02-24T01:00:04.783Z,1.73
2019-02-24T01:05:09.006Z,1.71
2019-02-24T01:10:13.076Z,1.78
2019-02-24T01:15:17.116Z,1.74
2019-02-24T01:20:21.131Z,1.71
2019-02-24T01:25:25.155Z,1.72
2019-02-24T01:30:29.167Z,1.71
2019-02-24T01:35:33.192Z,1.70
2019-02-24T01:40:37.288Z,1.64
2019-02-24T01:45:41.318Z,1.62
2019-02-24T01:50:45.332Z,1.58
2019-02-24T01:55:49.344Z,1.56
2019-02-24T02:00:53.356Z,1.41
2019-02-24T02:05:57.375Z,1.31
2019-02-24T02:11:01.418Z,1.14
2019-02-24T02:16:05.427Z,1.16
2019-02-24T02:21:09.542Z,0.98
2019-02-24T02:26:13.562Z,0.95
2019-02-24T02:31:17.582Z,1.02
2019-02-24T02:36:21.609Z,1.10
2019-02-24T02:41:25.619Z,1.15
2019-02-24T02:46:29.631Z,1.10
2019-02-24T02:51:33.666Z,1.10
2019-02-24T02:56:37.677Z,1.02
2019-02-24T03:01:41.700Z,0.97
2019-02-24T03:07:23.018Z,0.99
2019-02-24T03:12:27.041Z,0.93
2019-02-24T03:17:31.046Z,0.94
2019-02-24T03:22:35.069Z,0.73
2019-02-24T03:27:39.110Z,0.76
2019-02-24T03:32:43.174Z,0.61
2019-02-24T03:37:47.186Z,0.62
2019-02-24T03:42:51.207Z,0.59
2019-02-24T03:47:55.228Z,0.67
2019-02-24T03:52:59.268Z,0.76
2019-02-24T03:58:03.312Z,0.74
2019-02-24T04:03:07.298Z,0.55
2019-02-24T04:08:11.325Z,0.44
2019-02-24T04:13:15.349Z,0.46
2019-02-24T04:18:19.386Z,0.49
2019-02-24T04:23:23.418Z,0.59
2019-02-24T04:28:27.438Z,0.57
2019-02-24T04:33:31.490Z,0.62
2019-02-24T04:38:35.497Z,0.71
2019-02-24T04:43:39.528Z,0.61
2019-02-24T04:48:43.539Z,0.64
2019-02-24T04:53:47.562Z,0.59
2019-02-24T04:58:51.564Z,0.70
2019-02-24T05:03:55.602Z,0.79
2019-02-24T05:08:59.622Z,0.81
2019-02-24T05:14:03.640Z,0.90
2019-02-24T05:19:07.698Z,0.88
2019-02-24T05:24:11.816Z,0.93
2019-02-24T05:29:15.835Z,0.96
2019-02-24T05:34:19.852Z,0.94
2019-02-24T05:39:23.884Z,0.77
2019-02-24T05:44:27.896Z,0.90
2019-02-24T05:49:31.918Z,0.90
2019-02-24T05:54:35.951Z,0.90
2019-02-24T05:59:39.959Z,0.91
2019-02-24T06:04:43.952Z,0.86
2019-02-24T06:09:47.970Z,0.94
2019-02-24T06:14:51.986Z,1.01
2019-02-24T06:19:56.009Z,0.95
2019-02-24T06:25:00.025Z,1.03
2019-02-24T06:30:05.312Z,1.01
2019-02-24T06:35:09.843Z,1.04
2019-02-24T06:40:13.867Z,1.04
2019-02-24T06:45:17.893Z,1.08
2019-02-24T06:50:21.900Z,1.06
2019-02-24T06:55:25.910Z,1.19
2019-02-24T07:00:29.928Z,1.28
2019-02-24T07:05:33.961Z,1.46
2019-02-24T07:10:37.965Z,1.61
2019-02-24T07:15:41.987Z,1.69
2019-02-24T07:20:46.049Z,1.77
2019-02-24T07:25:50.064Z,1.77
2019-02-24T07:30:54.083Z,1.72
2019-02-24T07:35:58.108Z,1.88
2019-02-24T07:41:02.121Z,1.99
2019-02-24T07:46:06.174Z,1.97
2019-02-24T07:51:10.225Z,1.94
2019-02-24T07:56:14.267Z,2.25
2019-02-24T08:01:18.278Z,2.39
2019-02-24T08:06:22.311Z,2.36
2019-02-24T08:11:26.350Z,2.46
2019-02-24T08:16:30.372Z,2.50
2019-02-24T08:21:34.379Z,2.58
2019-02-24T08:26:38.401Z,2.67
2019-02-24T08:31:42.471Z,2.68
2019-02-24T08:36:46.584Z,2.35
2019-02-24T08:41:50.594Z,2.54
2019-02-24T08:46:54.613Z,2.72
2019-02-24T08:51:58.635Z,2.87
2019-02-24T08:57:02.669Z,3.00
2019-02-24T09:02:06.729Z,3.22
2019-02-24T09:07:10.745Z,3.03
2019-02-24T09:12:15.011Z,3.11
2019-02-24T09:17:19.055Z,3.43
2019-02-24T09:22:23.120Z,3.46
2019-02-24T09:27:27.185Z,3.51
2019-02-24T09:32:31.183Z,3.66
2019-02-24T09:37:35.216Z,4.03
2019-02-24T09:42:39.242Z,4.17
2019-02-24T09:47:46.801Z,4.42
2019-02-24T09:52:49.004Z,4.56
2019-02-24T09:57:53.046Z,4.86
2019-02-24T10:02:57.703Z,5.27
2019-02-24T10:08:01.761Z,6.32
2019-02-24T10:13:05.781Z,7.26
2019-02-24T10:18:09.850Z,8.26
2019-02-24T10:23:13.879Z,9.94
2019-02-24T10:28:17.950Z,10.08
2019-02-24T10:33:21.916Z,9.94
2019-02-24T10:38:25.942Z,9.64
2019-02-24T10:43:29.972Z,10.79
2019-02-24T10:48:33.998Z,11.06
2019-02-24T10:53:38.044Z,10.67
2019-02-24T10:58:42.073Z,11.90
2019-02-24T11:03:46.129Z,12.82
2019-02-24T11:08:50.155Z,12.96
2019-02-24T11:13:54.184Z,14.55
2019-02-24T11:18:58.241Z,15.54
2019-02-24T11:24:02.262Z,17.44
2019-02-24T11:29:06.285Z,15.19
2019-02-24T11:34:10.311Z,15.17
2019-02-24T11:39:14.341Z,15.94
2019-02-24T11:44:18.365Z,16.87
2019-02-24T11:49:24.060Z,16.65
2019-02-24T11:54:28.203Z,17.41
2019-02-24T11:59:32.212Z,16.42
2019-02-24T12:04:36.246Z,18.76
2019-02-24T12:09:40.278Z,18.43
2019-02-24T12:14:44.304Z,19.14
2019-02-24T12:19:48.355Z,18.33
2019-02-24T12:24:52.405Z,18.80
2019-02-24T12:29:56.454Z,18.80
2019-02-24T12:35:00.493Z,19.34
2019-02-24T12:40:05.011Z,17.49
2019-02-24T12:45:09.075Z,17.99
2019-02-24T12:50:13.148Z,17.30
2019-02-24T12:55:17.478Z,18.50
2019-02-24T13:00:21.599Z,19.13
2019-02-24T13:05:25.654Z,19.20
2019-02-24T13:10:29.704Z,20.64
2019-02-24T13:15:33.731Z,18.47
2019-02-24T13:20:37.777Z,19.74
2019-02-24T13:25:41.814Z,18.34
2019-02-24T13:30:45.850Z,18.00
2019-02-24T13:35:49.926Z,17.75
2019-02-24T13:40:53.952Z,17.38
2019-02-24T13:45:57.968Z,17.04
2019-02-24T13:51:02.032Z,15.29
2019-02-24T13:56:06.046Z,14.65
2019-02-24T14:01:10.081Z,13.49
2019-02-24T14:06:14.109Z,13.25
2019-02-24T14:11:18.216Z,12.92
2019-02-24T14:16:22.259Z,12.91
2019-02-24T14:21:26.284Z,12.83
2019-02-24T14:26:30.297Z,12.57
2019-02-24T14:31:34.308Z,12.44
2019-02-24T14:36:38.338Z,12.57
2019-02-24T14:41:42.382Z,12.54
2019-02-24T14:46:47.352Z,12.41
2019-02-24T14:51:51.399Z,12.32
2019-02-24T14:56:55.466Z,12.28
2019-02-24T15:01:59.499Z,12.13
2019-02-24T15:07:03.531Z,12.14
2019-02-24T15:12:07.561Z,12.16
2019-02-24T15:17:11.580Z,12.19
2019-02-24T15:22:15.642Z,12.15
2019-02-24T15:27:19.729Z,12.07
2019-02-24T15:32:23.778Z,12.09
2019-02-24T15:37:27.806Z,11.98
2019-02-24T15:42:31.836Z,11.94
2019-02-24T15:47:35.889Z,11.96
2019-02-24T15:52:39.937Z,11.87
2019-02-24T15:57:43.958Z,11.77
2019-02-24T16:02:48.023Z,11.72
2019-02-24T16:07:52.054Z,11.53
2019-02-24T16:12:56.093Z,11.79
2019-02-24T16:18:00.113Z,11.56
2019-02-24T16:23:04.174Z,11.36
2019-02-24T16:28:08.255Z,11.19
2019-02-24T16:33:12.309Z,11.08
2019-02-24T16:38:16.349Z,10.94
2019-02-24T16:43:20.369Z,10.78
2019-02-24T16:48:24.380Z,10.83
2019-02-24T16:53:28.423Z,10.64
2019-02-24T16:58:32.446Z,10.49
2019-02-24T17:03:36.489Z,10.41
2019-02-24T17:08:40.526Z,10.28
2019-02-24T17:13:44.757Z,10.22
2019-02-24T17:18:48.779Z,10.05
2019-02-24T17:23:52.802Z,9.86
2019-02-24T17:28:56.831Z,9.96
2019-02-24T17:34:00.919Z,9.94
2019-02-24T17:39:04.978Z,9.84
2019-02-24T17:44:09.004Z,9.71
2019-02-24T17:49:13.029Z,9.73
2019-02-24T17:54:17.067Z,9.74
2019-02-24T17:59:21.105Z,9.64
2019-02-24T18:04:25.592Z,9.58
2019-02-24T18:09:29.697Z,9.41
2019-02-24T18:14:33.741Z,9.36
2019-02-24T18:19:37.798Z,9.27
2019-02-24T18:24:41.959Z,9.21
2019-02-24T18:29:46.047Z,9.14
2019-02-24T18:34:50.137Z,9.18
2019-02-24T18:39:54.227Z,9.19
2019-02-24T18:44:58.798Z,9.22
2019-02-24T18:50:03.207Z,9.11
2019-02-24T18:55:08.096Z,9.13
2019-02-24T19:00:14.045Z,9.03
2019-02-24T19:05:18.681Z,8.91
2019-02-24T19:10:23.457Z,8.93
2019-02-24T19:15:28.313Z,8.90
2019-02-24T19:20:33.420Z,8.86
2019-02-24T19:25:38.807Z,8.80
2019-02-24T19:30:43.577Z,8.76
2019-02-24T19:35:48.772Z,8.73
2019-02-24T19:40:53.465Z,8.70
2019-02-24T19:45:58.309Z,8.72
2019-02-24T19:51:03.186Z,8.65
2019-02-24T19:56:08.152Z,8.58
2019-02-24T20:01:12.690Z,8.57
2019-02-24T20:06:17.380Z,8.55
2019-02-24T20:11:22.020Z,8.59
2019-02-24T20:16:26.623Z,8.45
2019-02-24T20:21:31.538Z,8.45
2019-02-24T20:26:35.760Z,8.44
2019-02-24T20:31:40.364Z,8.37
2019-02-24T20:36:45.152Z,8.38
2019-02-24T20:41:49.481Z,8.29
2019-02-24T20:46:53.818Z,8.34
2019-02-24T20:51:57.947Z,8.28
2019-02-24T20:57:01.992Z,8.34
2019-02-24T21:02:06.104Z,8.17
2019-02-24T21:07:10.303Z,8.12
2019-02-24T21:12:14.348Z,7.88
2019-02-24T21:17:18.382Z,7.82
2019-02-24T21:22:22.426Z,7.72
2019-02-24T21:27:26.473Z,7.71
2019-02-24T21:32:30.512Z,7.65
2019-02-24T21:37:34.565Z,7.61
2019-02-24T21:42:38.607Z,7.55
2019-02-24T21:47:42.624Z,7.46
2019-02-24T21:52:46.657Z,7.43
2019-02-24T21:57:50.693Z,7.36
2019-02-24T22:02:54.717Z,7.34
2019-02-24T22:07:58.730Z,7.32
2019-02-24T22:13:02.753Z,7.28
2019-02-24T22:18:06.818Z,7.20
2019-02-24T22:23:10.878Z,7.20
2019-02-24T22:28:15.121Z,7.15
2019-02-24T22:33:19.362Z,7.14
2019-02-24T22:38:23.570Z,7.09
2019-02-24T22:43:27.814Z,7.04
2019-02-24T22:48:32.052Z,7.00
2019-02-24T22:53:36.308Z,7.09
2019-02-24T22:58:40.530Z,7.08
2019-02-24T23:03:47.062Z,7.09
2019-02-24T23:08:51.283Z,7.14
2019-02-24T23:13:55.516Z,7.07
2019-02-24T23:18:59.754Z,6.90
2019-02-24T23:24:04.024Z,6.84
2019-02-24T23:29:08.227Z,6.87
2019-02-24T23:34:12.456Z,6.81
2019-02-24T23:39:18.141Z,6.74
2019-02-24T23:44:22.373Z,6.75
2019-02-24T23:49:26.619Z,6.72
2019-02-24T23:54:30.853Z,6.69
2019-02-24T23:59:35.080Z,6.60
